createdAt,value
2017-12-10T00:00:54.824Z,72
2017-12-10T00:01:53.545Z,72.3
2017-12-10T00:02:52.868Z,72.3
2017-12-10T00:03:51.698Z,72.5
2017-12-10T00:04:50.418Z,72.9
2017-12-10T00:05:49.857Z,72.8
2017-12-10T00:06:48.474Z,73.3
2017-12-10T00:07:47.710Z,73.1
2017-12-10T00:08:46.536Z,73.4
2017-12-10T00:09:45.150Z,73.5
2017-12-10T00:10:44.380Z,73.3
2017-12-10T00:11:43.255Z,73.5
2017-12-10T00:12:42.469Z,73.5
2017-12-10T00:13:41.407Z,73.7
2017-12-10T00:14:40.226Z,73.8
2017-12-10T00:15:39.456Z,74.2
2017-12-10T00:16:38.167Z,73.5
2017-12-10T00:17:37.485Z,73.8
2017-12-10T00:18:36.198Z,74
2017-12-10T00:19:35.412Z,74
2017-12-10T00:20:34.125Z,73
2017-12-10T00:21:33.241Z,73.2
2017-12-10T00:22:03.888Z,73.2
2017-12-10T00:22:34.425Z,73.7
2017-12-10T00:23:31.022Z,73.6
2017-12-10T00:24:29.840Z,73
2017-12-10T00:25:28.844Z,72.8
2017-12-10T00:26:28.065Z,73
2017-12-10T00:27:26.962Z,73.1
2017-12-10T00:28:25.880Z,72.1
2017-12-10T00:29:24.800Z,72.8
2017-12-10T00:30:24.125Z,72.4
2017-12-10T00:31:22.841Z,71.5
2017-12-10T00:31:53.077Z,71.5
2017-12-10T00:32:23.320Z,71.4
2017-12-10T00:32:53.565Z,71.4
2017-12-10T00:33:24.251Z,71.6
2017-12-10T00:33:54.782Z,71.6
2017-12-10T00:34:25.432Z,71.6
2017-12-10T00:34:55.560Z,71.6
2017-12-10T00:36:17.631Z,71.9
2017-12-10T00:37:16.739Z,71.5
2017-12-10T00:38:15.450Z,72.1
2017-12-10T00:39:14.669Z,71.5
2017-12-10T00:40:13.488Z,71.7
2017-12-10T00:41:12.207Z,71.2
2017-12-10T00:41:42.946Z,71.2
2017-12-10T00:42:13.271Z,71.3
2017-12-10T00:42:43.700Z,71.3
2017-12-10T00:44:09.689Z,71.3
2017-12-10T00:45:08.424Z,71
2017-12-10T00:46:07.637Z,71.1
2017-12-10T00:47:06.354Z,71.1
2017-12-10T00:49:04.346Z,71.3
2017-12-10T00:50:03.466Z,71.4
2017-12-10T00:51:02.477Z,71.2
2017-12-10T00:52:01.090Z,71.7
2017-12-10T00:53:00.417Z,70.8
2017-12-10T00:53:59.247Z,70.7
2017-12-10T00:54:58.070Z,70.7
2017-12-10T00:55:57.248Z,70.7
2017-12-10T00:56:56.073Z,70.4
2017-12-10T00:57:55.193Z,70.3
2017-12-10T00:58:53.907Z,70.6
2017-12-10T00:59:52.624Z,70.5
2017-12-10T01:00:51.842Z,70.4
2017-12-10T01:01:51.162Z,70.5
2017-12-10T01:02:49.877Z,70
2017-12-10T01:03:48.598Z,70.4
2017-12-10T01:04:47.923Z,70.1
2017-12-10T01:05:46.942Z,70
2017-12-10T01:06:45.768Z,69.9
2017-12-10T01:07:44.662Z,69.8
2017-12-10T01:08:43.481Z,70.3
2017-12-10T01:09:42.693Z,70.1
2017-12-10T01:10:41.562Z,69.5
2017-12-10T01:11:40.671Z,69.7
2017-12-10T01:12:39.781Z,69.6
2017-12-10T01:13:10.021Z,69.6
2017-12-10T01:13:40.657Z,69.8
2017-12-10T01:14:11.076Z,69.8
2017-12-10T01:14:41.641Z,69.1
2017-12-10T01:15:11.775Z,69.1
2017-12-10T01:16:35.554Z,68.8
2017-12-10T01:17:34.378Z,68.5
2017-12-10T01:18:33.390Z,68.6
2017-12-10T01:19:31.992Z,68.4
2017-12-10T01:20:31.208Z,68.4
2017-12-10T01:21:30.421Z,68.6
2017-12-10T01:22:29.242Z,68.6
2017-12-10T01:23:27.980Z,68.7
2017-12-10T01:23:58.409Z,68.7
2017-12-10T01:24:28.623Z,69.2
2017-12-10T01:24:59.149Z,69.2
2017-12-10T01:25:29.479Z,69
2017-12-10T01:26:25.172Z,68.6
2017-12-10T01:27:23.990Z,69
2017-12-10T01:28:22.930Z,69.3
2017-12-10T01:29:21.761Z,69.3
2017-12-10T01:30:21.201Z,69.2
2017-12-10T01:31:19.727Z,69.7
2017-12-10T01:32:18.657Z,69.4
2017-12-10T01:33:17.992Z,69.7
2017-12-10T01:35:15.804Z,69.3
2017-12-10T01:36:14.631Z,69.6
2017-12-10T01:37:13.747Z,69.9
2017-12-10T01:38:12.645Z,70.1
2017-12-10T01:39:11.467Z,70.4
2017-12-10T01:40:10.590Z,70
2017-12-10T01:41:09.808Z,70.1
2017-12-10T01:42:08.422Z,70
2017-12-10T01:43:07.739Z,71
2017-12-10T01:44:06.664Z,70.3
2017-12-10T01:45:05.269Z,70.2
2017-12-10T01:46:04.490Z,70.6
2017-12-10T01:47:03.419Z,70.7
2017-12-10T01:48:02.543Z,70.4
2017-12-10T01:49:01.050Z,70.5
2017-12-10T01:49:31.595Z,70.5
2017-12-10T01:50:01.911Z,70.7
2017-12-10T01:50:59.130Z,70.2
2017-12-10T01:51:57.852Z,70.2
2017-12-10T01:52:57.290Z,70.1
2017-12-10T01:53:56.101Z,70.3
2017-12-10T01:55:53.909Z,70.4
2017-12-10T01:56:53.233Z,70.8
2017-12-10T01:57:51.951Z,70.7
2017-12-10T01:58:50.886Z,71.2
2017-12-10T02:00:49.091Z,71.1
2017-12-10T02:01:47.809Z,70.7
2017-12-10T02:02:46.921Z,71
2017-12-10T02:03:45.639Z,71.1
2017-12-10T02:04:44.571Z,71.4
2017-12-10T02:06:42.679Z,71.1
2017-12-10T02:07:41.505Z,71.3
2017-12-10T02:08:40.480Z,71.1
2017-12-10T02:10:38.470Z,71.3
2017-12-10T02:11:37.414Z,71.3
2017-12-10T02:12:36.535Z,71.3
2017-12-10T02:13:35.134Z,71.2
2017-12-10T02:14:34.459Z,71.1
2017-12-10T02:15:33.170Z,71.5
2017-12-10T02:16:32.295Z,71.3
2017-12-10T02:17:31.292Z,71.1
2017-12-10T02:18:29.896Z,71.5
2017-12-10T02:19:29.008Z,71.6
2017-12-10T02:20:27.828Z,71.2
2017-12-10T02:21:27.207Z,71.3
2017-12-10T02:22:25.916Z,71.6
2017-12-10T02:23:24.918Z,71.1
2017-12-10T02:24:23.748Z,71.2
2017-12-10T02:25:23.069Z,71
2017-12-10T02:26:21.801Z,71.2
2017-12-10T02:27:20.585Z,71.2
2017-12-10T02:28:19.696Z,71.2
2017-12-10T02:29:18.910Z,70.9
2017-12-10T02:30:17.631Z,71.1
2017-12-10T02:32:15.349Z,71
2017-12-10T02:33:14.690Z,70.9
2017-12-10T02:34:13.620Z,71
2017-12-10T02:35:12.336Z,71.1
2017-12-10T02:36:11.563Z,71
2017-12-10T02:37:10.288Z,71.2
2017-12-10T02:38:09.229Z,71
2017-12-10T02:39:08.247Z,71.2
2017-12-10T02:40:07.469Z,71.4
2017-12-10T02:41:06.195Z,71.5
2017-12-10T02:42:05.312Z,71.3
2017-12-10T02:43:04.046Z,71.5
2017-12-10T02:44:02.976Z,71.6
2017-12-10T02:45:01.830Z,71.7
2017-12-10T02:46:00.649Z,71.8
2017-12-10T02:46:59.980Z,72.2
2017-12-10T02:47:58.821Z,71.9
2017-12-10T02:48:29.358Z,71.9
2017-12-10T02:48:59.781Z,71.9
2017-12-10T02:49:30.311Z,71.9
2017-12-10T02:50:00.739Z,72
2017-12-10T02:50:55.820Z,72.1
2017-12-10T02:51:54.527Z,72
2017-12-10T02:53:52.627Z,72.2
2017-12-10T02:54:51.460Z,72.3
2017-12-10T02:55:50.796Z,71.5
2017-12-10T02:56:49.509Z,71.5
2017-12-10T02:57:48.336Z,71.5
2017-12-10T02:58:47.269Z,71.9
2017-12-10T02:59:46.174Z,71.8
2017-12-10T03:00:45.513Z,71.8
2017-12-10T03:02:43.006Z,72.1
2017-12-10T03:03:42.234Z,71.8
2017-12-10T03:04:41.050Z,72.1
2017-12-10T03:05:39.874Z,72.3
2017-12-10T03:06:39.092Z,71.9
2017-12-10T03:07:37.700Z,72.4
2017-12-10T03:08:36.979Z,72.2
2017-12-10T03:09:35.585Z,72.4
2017-12-10T03:10:34.917Z,72
2017-12-10T03:11:33.632Z,72.1
2017-12-10T03:12:32.958Z,72.2
2017-12-10T03:13:31.775Z,72
2017-12-10T03:14:30.607Z,72.3
2017-12-10T03:15:29.506Z,71.9
2017-12-10T03:16:28.611Z,71.8
2017-12-10T03:17:27.425Z,72
2017-12-10T03:18:26.542Z,71.8
2017-12-10T03:19:25.469Z,72.1
2017-12-10T03:20:24.471Z,71.8
2017-12-10T03:21:23.086Z,71.8
2017-12-10T03:22:22.412Z,71.7
2017-12-10T03:23:21.241Z,71.7
2017-12-10T03:24:19.955Z,71.8
2017-12-10T03:25:19.169Z,71.7
2017-12-10T03:26:18.095Z,72.1
2017-12-10T03:27:17.037Z,71.9
2017-12-10T03:28:15.868Z,71.5
2017-12-10T03:29:15.195Z,71.6
2017-12-10T03:30:13.985Z,71.7
2017-12-10T03:31:12.931Z,71.8
2017-12-10T03:32:11.880Z,71.7
2017-12-10T03:33:10.608Z,71.8
2017-12-10T03:34:09.554Z,71.6
2017-12-10T03:35:08.887Z,71.5
2017-12-10T03:36:07.715Z,71.4
2017-12-10T03:37:06.435Z,71.6
2017-12-10T03:38:05.651Z,71.8
2017-12-10T03:39:04.357Z,71.7
2017-12-10T03:40:03.683Z,72.1
2017-12-10T03:41:02.397Z,72
2017-12-10T03:42:01.220Z,71.8
2017-12-10T03:43:00.559Z,71.8
2017-12-10T03:43:59.173Z,72
2017-12-10T03:44:58.392Z,72.3
2017-12-10T03:45:57.007Z,72.2
2017-12-10T03:46:56.336Z,72
2017-12-10T03:47:55.263Z,72.2
2017-12-10T03:48:54.182Z,72.2
2017-12-10T03:49:53.002Z,72.3
2017-12-10T03:50:51.725Z,72.8
2017-12-10T03:51:51.044Z,72.6
2017-12-10T03:52:49.746Z,72.7
2017-12-10T03:53:48.843Z,73.2
2017-12-10T03:54:47.954Z,72.8
2017-12-10T03:55:46.659Z,72.9
2017-12-10T03:56:45.863Z,73.1
2017-12-10T03:57:44.563Z,73.1
2017-12-10T03:58:43.556Z,73
2017-12-10T03:59:42.753Z,73.3
2017-12-10T04:00:41.669Z,73.7
2017-12-10T04:01:40.589Z,73.4
2017-12-10T04:02:39.291Z,73.7
2017-12-10T04:03:38.177Z,73.8
2017-12-10T04:04:37.280Z,73.8
2017-12-10T04:05:36.480Z,73.8
2017-12-10T04:06:06.608Z,73.8
2017-12-10T04:06:37.022Z,74.2
2017-12-10T04:07:34.110Z,74.1
2017-12-10T04:09:32.194Z,73.6
2017-12-10T04:10:31.298Z,73.9
2017-12-10T04:11:30.210Z,73.6
2017-12-10T04:12:29.026Z,73.6
2017-12-10T04:13:27.943Z,73.6
2017-12-10T04:14:27.160Z,73.9
2017-12-10T04:15:25.658Z,73.7
2017-12-10T04:15:56.181Z,73.7
2017-12-10T04:16:26.410Z,73.7
2017-12-10T04:16:56.641Z,73.7
2017-12-10T04:17:27.155Z,73.8
2017-12-10T04:18:22.939Z,73.7
2017-12-10T04:19:21.754Z,73.7
2017-12-10T04:20:20.452Z,73.8
2017-12-10T04:21:19.834Z,73.8
2017-12-10T04:22:18.647Z,74.1
2017-12-10T04:23:17.346Z,73.9
2017-12-10T04:24:16.447Z,73.8
2017-12-10T04:25:15.442Z,74
2017-12-10T04:26:14.413Z,74
2017-12-10T04:27:13.516Z,74
2017-12-10T04:28:12.323Z,73.9
2017-12-10T04:29:11.032Z,74.1
2017-12-10T04:30:10.176Z,73.9
2017-12-10T04:31:09.281Z,74.1
2017-12-10T04:32:08.085Z,74.3
2017-12-10T04:33:07.005Z,75
2017-12-10T04:34:05.810Z,74.6
2017-12-10T04:35:05.139Z,74.6
2017-12-10T04:36:03.836Z,74.7
2017-12-10T04:37:02.643Z,74.6
2017-12-10T04:38:01.958Z,74.9
2017-12-10T04:39:00.658Z,74.9
2017-12-10T04:39:59.469Z,74.9
2017-12-10T04:40:58.674Z,74.8
2017-12-10T04:41:57.782Z,74.8
2017-12-10T04:42:56.595Z,74.7
2017-12-10T04:43:55.804Z,74.8
2017-12-10T04:44:54.391Z,75.2
2017-12-10T04:45:24.805Z,75.2
2017-12-10T04:45:55.325Z,74.8
2017-12-10T04:46:25.852Z,74.8
2017-12-10T04:46:56.377Z,75.1
2017-12-10T04:47:26.789Z,75.1
2017-12-10T04:48:50.263Z,75
2017-12-10T04:49:49.468Z,75
2017-12-10T04:50:48.173Z,75.1
2017-12-10T04:51:47.378Z,75.3
2017-12-10T04:52:46.048Z,75.1
2017-12-10T04:53:45.141Z,75.4
2017-12-10T04:54:44.232Z,75.5
2017-12-10T04:55:42.932Z,75.3
2017-12-10T04:56:13.451Z,75.3
2017-12-10T04:56:43.858Z,75.2
2017-12-10T04:57:14.486Z,75.2
2017-12-10T04:57:44.907Z,75.4
2017-12-10T04:58:15.147Z,75.4
2017-12-10T04:59:38.962Z,75.4
2017-12-10T05:00:37.771Z,75.5
2017-12-10T05:01:36.873Z,75.6
2017-12-10T05:02:35.479Z,75.6
2017-12-10T05:03:34.680Z,75.7
2017-12-10T05:04:33.778Z,75.9
2017-12-10T05:05:32.588Z,75.8
2017-12-10T05:06:31.184Z,75.7
2017-12-10T05:07:30.387Z,75.8
2017-12-10T05:08:29.193Z,75.8
2017-12-10T05:09:28.291Z,75.5
2017-12-10T05:10:27.502Z,75.6
2017-12-10T05:11:26.304Z,75.5
2017-12-10T05:12:25.409Z,75.4
2017-12-10T05:13:24.009Z,75.9
2017-12-10T05:14:23.211Z,75.6
2017-12-10T05:15:21.925Z,75.4
2017-12-10T05:16:21.138Z,75.4
2017-12-10T05:17:19.941Z,75.3
2017-12-10T05:18:18.937Z,75.5
2017-12-10T05:19:18.136Z,75.6
2017-12-10T05:20:16.968Z,75.5
2017-12-10T05:21:15.571Z,75.5
2017-12-10T05:22:14.885Z,75.3
2017-12-10T05:23:13.586Z,75.6
2017-12-10T05:24:12.912Z,75.6
2017-12-10T05:25:11.504Z,75.6
2017-12-10T05:25:42.027Z,75.6
2017-12-10T05:26:12.440Z,75.7
2017-12-10T05:28:08.403Z,75.6
2017-12-10T05:28:38.823Z,75.6
2017-12-10T05:30:06.423Z,75.5
2017-12-10T05:31:05.041Z,75.5
2017-12-10T05:32:04.362Z,75.3
2017-12-10T05:33:03.189Z,75.4
2017-12-10T05:34:02.097Z,75.4
2017-12-10T05:35:01.299Z,75.3
2017-12-10T05:36:00.302Z,75.3
2017-12-10T05:36:30.831Z,75.3
2017-12-10T05:37:01.464Z,75.3
2017-12-10T05:37:32.099Z,75.3
2017-12-10T05:38:57.194Z,75.3
2017-12-10T05:39:56.108Z,75.2
2017-12-10T05:40:54.911Z,75.4
2017-12-10T05:41:53.731Z,75.3
2017-12-10T05:42:52.537Z,75.6
2017-12-10T05:43:51.517Z,75.1
2017-12-10T05:44:50.720Z,75.1
2017-12-10T05:45:49.636Z,75
2017-12-10T05:46:48.556Z,74.9
2017-12-10T05:47:47.370Z,74.8
2017-12-10T05:48:46.289Z,74.5
2017-12-10T05:49:45.610Z,74.4
2017-12-10T05:50:44.528Z,74.4
2017-12-10T05:51:43.228Z,74.1
2017-12-10T05:52:42.443Z,73.8
2017-12-10T05:53:41.151Z,73.8
2017-12-10T05:54:40.352Z,73.7
2017-12-10T05:55:39.058Z,73.8
2017-12-10T05:56:38.057Z,73.7
2017-12-10T05:57:37.263Z,74
2017-12-10T05:58:35.963Z,74.4
2017-12-10T05:59:34.885Z,73.9
2017-12-10T06:00:33.991Z,74.2
2017-12-10T06:01:32.692Z,74.1
2017-12-10T06:02:31.694Z,74.4
2017-12-10T06:03:30.620Z,74.4
2017-12-10T06:04:29.827Z,74.1
2017-12-10T06:05:28.639Z,74.3
2017-12-10T06:06:27.445Z,74.2
2017-12-10T06:07:26.657Z,74.4
2017-12-10T06:08:25.575Z,74.6
2017-12-10T06:09:24.421Z,74.6
2017-12-10T06:10:23.411Z,74.2
2017-12-10T06:11:22.401Z,74
2017-12-10T06:12:21.209Z,74.4
2017-12-10T06:13:20.425Z,74.7
2017-12-10T06:14:19.234Z,74.7
2017-12-10T06:15:17.937Z,74.7
2017-12-10T06:16:17.143Z,74.2
2017-12-10T06:16:47.788Z,74.2
2017-12-10T06:18:14.784Z,73.7
2017-12-10T06:19:14.104Z,74.2
2017-12-10T06:20:12.910Z,73.8
2017-12-10T06:21:11.736Z,74.2
2017-12-10T06:22:10.943Z,74.2
2017-12-10T06:23:09.867Z,74
2017-12-10T06:24:08.467Z,73.9
2017-12-10T06:25:07.678Z,74
2017-12-10T06:26:06.609Z,74.2
2017-12-10T06:27:05.317Z,74.2
2017-12-10T06:28:04.585Z,74.1
2017-12-10T06:29:03.283Z,73.9
2017-12-10T06:30:02.489Z,74.1
2017-12-10T06:31:01.082Z,74.4
2017-12-10T06:32:00.288Z,74.4
2017-12-10T06:32:58.988Z,74.5
2017-12-10T06:33:58.311Z,74
2017-12-10T06:34:57.123Z,73.9
2017-12-10T06:35:55.928Z,73.9
2017-12-10T06:36:54.850Z,74
2017-12-10T06:37:53.841Z,73.5
2017-12-10T06:38:53.152Z,73.6
2017-12-10T06:39:51.749Z,73.4
2017-12-10T06:40:51.064Z,73.1
2017-12-10T06:41:49.822Z,73.4
2017-12-10T06:42:48.743Z,73.4
2017-12-10T06:43:47.567Z,73.1
2017-12-10T06:44:46.369Z,73.3
2017-12-10T06:45:45.468Z,73.3
2017-12-10T06:46:44.179Z,73.6
2017-12-10T06:47:43.488Z,73.2
2017-12-10T06:48:42.082Z,73.2
2017-12-10T06:49:41.294Z,73.3
2017-12-10T06:50:40.202Z,73.7
2017-12-10T06:51:39.117Z,73.6
2017-12-10T06:52:38.120Z,73.2
2017-12-10T06:53:37.228Z,73.2
2017-12-10T06:54:36.346Z,73.4
2017-12-10T06:55:35.153Z,73.3
2017-12-10T06:56:33.857Z,73.3
2017-12-10T06:57:32.955Z,73
2017-12-10T06:58:31.945Z,73.3
2017-12-10T06:59:30.753Z,73.6
2017-12-10T07:00:29.466Z,73.1
2017-12-10T07:01:28.881Z,73.6
2017-12-10T07:02:27.793Z,73
2017-12-10T07:03:26.385Z,73.5
2017-12-10T07:04:25.591Z,72.2
2017-12-10T07:05:24.398Z,72.2
2017-12-10T07:06:23.205Z,72.3
2017-12-10T07:08:21.460Z,71.8
2017-12-10T07:09:20.468Z,72.2
2017-12-10T07:10:19.461Z,71.9
2017-12-10T07:10:49.983Z,71.9
2017-12-10T07:11:20.607Z,71.6
2017-12-10T07:11:50.847Z,71.6
2017-12-10T07:12:21.488Z,71.6
2017-12-10T07:12:52.004Z,71.6
2017-12-10T07:14:14.869Z,71.6
2017-12-10T07:15:14.083Z,71.9
2017-12-10T07:16:13.181Z,71.7
2017-12-10T07:17:11.890Z,71.9
2017-12-10T07:18:10.818Z,71.8
2017-12-10T07:19:10.035Z,71.4
2017-12-10T07:20:08.959Z,71.4
2017-12-10T07:21:07.821Z,71.9
2017-12-10T07:22:06.525Z,71.4
2017-12-10T07:23:05.625Z,71.3
2017-12-10T07:24:04.617Z,71.5
2017-12-10T07:25:03.316Z,71.8
2017-12-10T07:26:02.524Z,71.7
2017-12-10T07:27:01.230Z,71.3
2017-12-10T07:28:00.335Z,71.2
2017-12-10T07:28:59.036Z,71.6
2017-12-10T07:30:57.136Z,71.4
2017-12-10T07:31:56.126Z,71.4
2017-12-10T07:32:54.834Z,71.4
2017-12-10T07:33:54.051Z,71.5
2017-12-10T07:34:52.868Z,71.5
2017-12-10T07:35:23.279Z,71.5
2017-12-10T07:35:53.798Z,71.6
2017-12-10T07:36:50.991Z,71.3
2017-12-10T07:37:49.595Z,71.8
2017-12-10T07:38:48.909Z,71.9
2017-12-10T07:39:47.510Z,71.6
2017-12-10T07:40:46.820Z,71.7
2017-12-10T07:41:45.523Z,71.4
2017-12-10T07:42:44.870Z,72.1
2017-12-10T07:43:43.777Z,71.1
2017-12-10T07:44:42.479Z,71.3
2017-12-10T07:46:40.174Z,71.7
2017-12-10T07:47:39.277Z,72.1
2017-12-10T07:48:38.200Z,71.7
2017-12-10T07:49:37.204Z,71.2
2017-12-10T07:50:36.212Z,71.6
2017-12-10T07:51:06.620Z,71.6
2017-12-10T07:51:37.140Z,71.3
2017-12-10T07:52:07.775Z,71.3
2017-12-10T07:52:38.395Z,71.7
2017-12-10T07:53:08.919Z,71.7
2017-12-10T07:54:31.890Z,71
2017-12-10T07:56:29.867Z,71.2
2017-12-10T07:57:28.785Z,71.1
2017-12-10T07:58:27.887Z,71.1
2017-12-10T07:59:26.808Z,71.2
2017-12-10T08:00:25.508Z,70.9
2017-12-10T08:01:24.813Z,71.2
2017-12-10T08:02:23.644Z,71
2017-12-10T08:03:22.356Z,71.5
2017-12-10T08:04:21.523Z,71.5
2017-12-10T08:05:20.725Z,71.2
2017-12-10T08:06:19.535Z,71.3
2017-12-10T08:07:18.130Z,71.1
2017-12-10T08:08:17.229Z,71.2
2017-12-10T08:09:16.448Z,71.3
2017-12-10T08:10:15.256Z,71.2
2017-12-10T08:11:14.072Z,71.1
2017-12-10T08:12:13.287Z,70.9
2017-12-10T08:13:11.994Z,71
2017-12-10T08:14:10.699Z,71.2
2017-12-10T08:15:09.912Z,70.9
2017-12-10T08:16:08.725Z,71
2017-12-10T08:17:08.032Z,70.9
2017-12-10T08:18:06.739Z,70.9
2017-12-10T08:19:05.942Z,71.2
2017-12-10T08:20:04.636Z,70.7
2017-12-10T08:21:03.742Z,70.3
2017-12-10T08:22:02.841Z,70.3
2017-12-10T08:23:01.439Z,70.3
2017-12-10T08:24:00.641Z,70.6
2017-12-10T08:24:59.359Z,70.8
2017-12-10T08:25:58.567Z,70.4
2017-12-10T08:26:57.484Z,70.3
2017-12-10T08:28:55.185Z,70
2017-12-10T08:29:54.499Z,70.2
2017-12-10T08:30:53.309Z,70.3
2017-12-10T08:31:52.139Z,70
2017-12-10T08:32:51.063Z,69.8
2017-12-10T08:33:21.798Z,69.8
2017-12-10T08:33:52.422Z,70.3
2017-12-10T08:34:22.665Z,70.3
2017-12-10T08:34:53.182Z,70.3
2017-12-10T08:35:47.858Z,70.2
2017-12-10T08:36:47.166Z,69.7
2017-12-10T08:37:45.760Z,69.8
2017-12-10T08:39:43.954Z,70
2017-12-10T08:40:43.061Z,69.1
2017-12-10T08:41:41.983Z,69.8
2017-12-10T08:42:40.580Z,69.5
2017-12-10T08:43:39.906Z,69.4
2017-12-10T08:44:38.602Z,69.5
2017-12-10T08:45:37.411Z,69.1
2017-12-10T08:46:36.526Z,69.6
2017-12-10T08:47:35.618Z,69.4
2017-12-10T08:48:34.428Z,69.2
2017-12-10T08:49:33.252Z,69.8
2017-12-10T08:50:32.576Z,69.4
2017-12-10T08:51:31.499Z,69.5
2017-12-10T08:52:30.319Z,69.6
2017-12-10T08:53:29.240Z,69.8
2017-12-10T08:54:28.054Z,69.5
2017-12-10T08:55:27.260Z,69.3
2017-12-10T08:56:25.987Z,69.3
2017-12-10T08:57:24.878Z,69.3
2017-12-10T08:58:24.085Z,69.2
2017-12-10T08:59:22.788Z,69.4
2017-12-10T09:00:22.216Z,69.1
2017-12-10T09:01:21.018Z,69.2
2017-12-10T09:02:19.720Z,69.4
2017-12-10T09:03:18.926Z,69.4
2017-12-10T09:04:17.636Z,69.3
2017-12-10T09:05:16.853Z,69.8
2017-12-10T09:06:15.562Z,69.5
2017-12-10T09:07:14.486Z,69
2017-12-10T09:07:45.004Z,69
2017-12-10T09:08:15.573Z,68.7
2017-12-10T09:08:46.095Z,68.7
2017-12-10T09:10:11.255Z,69.2
2017-12-10T09:11:10.421Z,68.8
2017-12-10T09:12:09.259Z,69.4
2017-12-10T09:13:08.566Z,69
2017-12-10T09:14:07.272Z,69.1
2017-12-10T09:15:06.590Z,68.9
2017-12-10T09:16:05.406Z,68.7
2017-12-10T09:17:04.224Z,68.9
2017-12-10T09:18:03.039Z,68.8
2017-12-10T09:19:02.403Z,68.5
2017-12-10T09:20:01.210Z,69.3
2017-12-10T09:20:59.926Z,68.7
2017-12-10T09:21:58.860Z,68.6
2017-12-10T09:22:57.958Z,68.5
2017-12-10T09:23:56.768Z,69.1
2017-12-10T09:24:56.067Z,68.9
2017-12-10T09:25:54.775Z,69
2017-12-10T09:26:53.983Z,68.7
2017-12-10T09:27:52.686Z,68.8
2017-12-10T09:28:51.899Z,69
2017-12-10T09:29:50.599Z,69
2017-12-10T09:30:49.828Z,69.1
2017-12-10T09:31:48.531Z,69
2017-12-10T09:32:47.662Z,69.2
2017-12-10T09:33:46.828Z,69.3
2017-12-10T09:34:45.693Z,69.5
2017-12-10T09:35:44.558Z,68.9
2017-12-10T09:36:43.365Z,68.7
2017-12-10T09:37:42.470Z,68.8
2017-12-10T09:38:41.381Z,69
2017-12-10T09:39:40.584Z,68.9
2017-12-10T09:40:39.286Z,68.7
2017-12-10T09:41:38.102Z,68.7
2017-12-10T09:42:37.394Z,68.6
2017-12-10T09:43:36.110Z,69
2017-12-10T09:44:35.224Z,68.8
2017-12-10T09:45:33.931Z,69
2017-12-10T09:46:32.841Z,69.1
2017-12-10T09:47:03.251Z,69.1
2017-12-10T09:47:33.891Z,69.2
2017-12-10T09:48:04.518Z,69.2
2017-12-10T09:48:34.928Z,70
2017-12-10T09:49:05.163Z,70
2017-12-10T09:49:35.787Z,68.4
2017-12-10T09:50:06.201Z,68.4
2017-12-10T09:50:36.718Z,68.9
2017-12-10T09:51:07.129Z,68.9
2017-12-10T09:52:26.971Z,68.8
2017-12-10T09:53:25.675Z,68.3
2017-12-10T09:55:23.710Z,68.9
2017-12-10T09:56:22.428Z,69.2
2017-12-10T09:57:21.527Z,69.1
2017-12-10T09:58:20.523Z,68.7
2017-12-10T09:59:19.851Z,68.7
2017-12-10T09:59:50.376Z,68.7
2017-12-10T10:00:20.623Z,68.7
2017-12-10T10:00:50.746Z,68.7
2017-12-10T10:02:16.642Z,68.5
2017-12-10T10:03:15.459Z,68.7
2017-12-10T10:04:14.275Z,68.9
2017-12-10T10:05:13.083Z,68.3
2017-12-10T10:06:12.185Z,68.5
2017-12-10T10:07:11.288Z,68.7
2017-12-10T10:08:09.994Z,68.4
2017-12-10T10:09:09.320Z,68.4
2017-12-10T10:10:08.135Z,67.9
2017-12-10T10:11:07.134Z,68.2
2017-12-10T10:12:06.131Z,68
2017-12-10T10:13:05.337Z,68.2
2017-12-10T10:14:04.042Z,68.3
2017-12-10T10:15:03.138Z,68.2
2017-12-10T10:16:01.958Z,68
2017-12-10T10:17:01.166Z,68.4
2017-12-10T10:17:59.982Z,68.2
2017-12-10T10:19:57.679Z,67.4
2017-12-10T10:20:56.775Z,67.1
2017-12-10T10:21:55.695Z,67.4
2017-12-10T10:22:54.517Z,67.1
2017-12-10T10:23:53.720Z,66.9
2017-12-10T10:24:52.828Z,67.9
2017-12-10T10:25:51.601Z,67
2017-12-10T10:26:50.411Z,67.4
2017-12-10T10:27:49.723Z,67.3
2017-12-10T10:28:20.244Z,67.3
2017-12-10T10:28:50.763Z,67.1
2017-12-10T10:29:21.398Z,67.1
2017-12-10T10:29:51.921Z,67
2017-12-10T10:30:46.605Z,66.8
2017-12-10T10:31:17.238Z,66.8
2017-12-10T10:31:47.640Z,66.2
2017-12-10T10:32:44.327Z,66.2
2017-12-10T10:33:43.254Z,66.2
2017-12-10T10:34:42.476Z,66.5
2017-12-10T10:35:41.291Z,65.9
2017-12-10T10:36:40.106Z,65.9
2017-12-10T10:37:39.031Z,66.1
2017-12-10T10:38:38.460Z,65.9
2017-12-10T10:39:08.693Z,65.9
2017-12-10T10:39:39.328Z,66.1
2017-12-10T10:40:09.596Z,66.1
2017-12-10T10:41:35.083Z,66.1
2017-12-10T10:42:33.900Z,65.7
2017-12-10T10:43:33.001Z,65.9
2017-12-10T10:44:31.922Z,66.1
2017-12-10T10:45:30.856Z,66
2017-12-10T10:46:30.171Z,65.9
2017-12-10T10:47:28.982Z,65.9
2017-12-10T10:48:27.682Z,66.4
2017-12-10T10:49:26.778Z,66.4
2017-12-10T10:50:25.983Z,66.5
2017-12-10T10:51:24.793Z,65.6
2017-12-10T10:55:20.378Z,66.3
2017-12-10T10:56:19.590Z,66
2017-12-10T10:57:18.500Z,65.6
2017-12-10T10:58:17.486Z,66.5
2017-12-10T10:59:16.290Z,66.1
2017-12-10T11:00:15.397Z,65.5
2017-12-10T11:01:14.726Z,66.6
2017-12-10T11:02:13.322Z,65.7
2017-12-10T11:05:10.285Z,65.8
2017-12-10T11:06:08.982Z,66.7
2017-12-10T11:07:08.404Z,66.2
2017-12-10T11:08:07.506Z,66.3
2017-12-10T11:09:06.317Z,66.1
2017-12-10T11:10:05.022Z,66
2017-12-10T11:11:04.125Z,66.1
2017-12-10T11:12:02.932Z,66.6
2017-12-10T11:13:02.253Z,67
2017-12-10T11:14:01.248Z,67.3
2017-12-10T11:15:59.124Z,66.4
2017-12-10T11:16:58.269Z,67
2017-12-10T11:17:56.759Z,66.8
2017-12-10T11:18:55.974Z,66.1
2017-12-10T11:19:54.776Z,66.1
2017-12-10T11:21:53.017Z,66.8
2017-12-10T11:22:23.529Z,66.8
2017-12-10T11:22:54.159Z,66.5
2017-12-10T11:23:50.849Z,66.5
2017-12-10T11:24:49.863Z,66.6
2017-12-10T11:25:20.390Z,66.6
2017-12-10T12:45:25.096Z,65.5
2017-12-10T13:31:36.516Z,64.6
2017-12-10T13:32:35.619Z,64
2017-12-10T13:33:34.823Z,64.5
2017-12-10T13:34:33.737Z,64.2
2017-12-10T13:35:04.252Z,64.2
2017-12-10T13:35:34.775Z,64.6
2017-12-10T13:36:05.507Z,64.6
2017-12-10T13:38:29.332Z,64
2017-12-10T13:39:28.644Z,63.3
2017-12-10T13:40:27.240Z,63.5
2017-12-10T13:41:26.458Z,62.7
2017-12-10T13:42:25.163Z,62.1
2017-12-10T13:43:24.260Z,62
2017-12-10T13:44:23.376Z,62.4
2017-12-10T13:45:22.117Z,62.6
2017-12-10T13:45:52.362Z,62.6
2017-12-10T13:46:22.779Z,63
2017-12-10T16:29:26.840Z,94.7
2017-12-10T16:30:25.953Z,94.7
2017-12-10T16:31:25.048Z,94.8
2017-12-10T16:32:23.746Z,94.7
2017-12-10T16:34:21.729Z,94.8
2017-12-10T16:35:20.220Z,94.8
2017-12-10T16:36:19.549Z,94.8
2017-12-10T16:37:18.155Z,94.8
2017-12-10T16:38:17.148Z,94.8
2017-12-10T16:39:16.465Z,94.8
2017-12-10T16:41:14.049Z,94.7
2017-12-10T16:42:13.159Z,94.7
2017-12-10T16:43:11.750Z,94.8
2017-12-10T16:44:10.853Z,94.8
2017-12-10T16:45:10.170Z,94.8
2017-12-10T16:46:08.562Z,94.8
2017-12-10T16:47:07.774Z,94.8
2017-12-10T16:48:06.999Z,94.8
2017-12-10T16:49:05.822Z,94.7
2017-12-10T16:51:03.620Z,94.7
2017-12-10T16:52:02.328Z,94.7
2017-12-10T16:53:01.434Z,94.6
2017-12-10T16:54:00.242Z,94.6
2017-12-10T16:54:59.444Z,94.7
2017-12-10T16:55:58.362Z,94.7
2017-12-10T16:56:57.167Z,94.7
2017-12-10T16:57:56.265Z,94.7
2017-12-10T16:58:55.190Z,94.7
2017-12-10T16:59:54.171Z,94.8
2017-12-10T17:00:52.988Z,94.7
2017-12-10T17:01:51.910Z,94.7
2017-12-10T17:02:50.614Z,94.7
2017-12-10T17:03:49.526Z,94.7
2017-12-10T17:04:48.734Z,94.7
2017-12-10T17:05:19.057Z,94.7
2017-12-10T17:05:49.320Z,94.6
2017-12-10T17:06:19.852Z,94.6
2017-12-10T17:07:45.335Z,94.5
2017-12-10T17:08:44.436Z,94.5
2017-12-10T17:09:43.145Z,94.5
2017-12-10T17:10:42.353Z,94.5
2017-12-10T17:11:41.448Z,94.5
2017-12-10T17:12:40.151Z,94.4
2017-12-10T17:13:38.961Z,94.4
2017-12-10T17:15:37.222Z,94.2
2017-12-10T17:16:07.516Z,94.2
2017-12-10T17:16:38.136Z,94.2
2017-12-10T17:17:08.759Z,94.2
2017-12-10T17:18:33.740Z,94.1
2017-12-10T17:19:32.650Z,94
2017-12-10T17:20:31.573Z,93.8
2017-12-10T17:21:30.877Z,93.5
2017-12-10T17:22:29.594Z,93.2
2017-12-10T17:23:28.583Z,93
2017-12-10T17:25:26.455Z,92.8
2017-12-10T17:26:25.453Z,92.7
2017-12-10T17:27:24.051Z,92.6
2017-12-10T17:28:23.359Z,92.6
2017-12-10T17:29:22.174Z,92.4
2017-12-10T17:30:20.987Z,92.3
2017-12-10T17:31:20.190Z,92
2017-12-10T17:32:18.883Z,92
2017-12-10T17:33:17.701Z,91.9
2017-12-10T17:34:16.839Z,91.8
2017-12-10T17:35:15.432Z,91.7
